createdAt,value
2022-09-28T00:01:42.808Z,100615.66
2022-09-28T00:04:49.062Z,100621.56
2022-09-28T00:07:54.740Z,100614.47
2022-09-28T00:10:59.919Z,100616.28
2022-09-28T00:14:07.344Z,100608.44
2022-09-28T00:17:16.857Z,100610.16
2022-09-28T00:20:23.626Z,100620.34
2022-09-28T00:23:28.454Z,100606.97
2022-09-28T00:26:34.814Z,100629.06
2022-09-28T00:29:39.700Z,100608.84
2022-09-28T00:32:45.025Z,100627.66
2022-09-28T00:35:58.283Z,100617.38
2022-09-28T00:39:07.319Z,100621.00
2022-09-28T00:42:15.748Z,100623.38
2022-09-28T00:45:20.867Z,100619.19
2022-09-28T00:48:30.437Z,100617.47
2022-09-28T00:51:39.033Z,100613.34
2022-09-28T00:54:45.181Z,100603.69
2022-09-28T00:57:55.372Z,100621.06
2022-09-28T01:01:01.222Z,100610.06
2022-09-28T01:04:06.224Z,100610.50
2022-09-28T01:07:14.403Z,100600.22
2022-09-28T01:10:19.836Z,100617.53
2022-09-28T01:13:25.534Z,100614.88
2022-09-28T01:16:42.934Z,100621.84
2022-09-28T01:20:50.074Z,100620.34
2022-09-28T01:24:23.239Z,100621.69
2022-09-28T01:27:30.641Z,100616.69
2022-09-28T01:30:40.449Z,100617.59
2022-09-28T01:33:48.609Z,100616.81
2022-09-28T01:36:56.770Z,100615.03
2022-09-28T01:40:04.147Z,100607.53
2022-09-28T01:43:13.381Z,100617.84
2022-09-28T01:46:21.946Z,100619.56
2022-09-28T01:49:31.293Z,100621.50
2022-09-28T01:52:41.026Z,100619.78
2022-09-28T01:55:49.585Z,100618.81
2022-09-28T01:59:01.087Z,100617.59
2022-09-28T02:02:10.751Z,100607.00
2022-09-28T02:05:18.491Z,100627.56
2022-09-28T02:08:28.491Z,100619.06
2022-09-28T02:11:37.334Z,100616.38
2022-09-28T02:14:46.661Z,100615.72
2022-09-28T02:17:51.846Z,100611.56
2022-09-28T02:21:19.589Z,100614.91
2022-09-28T02:24:33.422Z,100611.56
2022-09-28T02:27:42.650Z,100620.03
2022-09-28T02:30:49.198Z,100608.03
2022-09-28T02:33:58.888Z,100612.19
2022-09-28T02:37:04.114Z,100613.09
2022-09-28T02:40:16.074Z,100614.00
2022-09-28T02:43:26.414Z,100617.69
2022-09-28T02:46:38.259Z,100621.63
2022-09-28T02:50:13.173Z,100618.16
2022-09-28T02:53:50.978Z,100619.50
2022-09-28T02:57:11.642Z,100619.28
2022-09-28T03:00:20.093Z,100618.38
2022-09-28T03:03:34.417Z,100616.03
2022-09-28T03:06:44.143Z,100621.78
2022-09-28T03:09:57.727Z,100617.69
2022-09-28T03:13:03.501Z,100621.19
2022-09-28T03:16:14.250Z,100612.63
2022-09-28T03:19:26.180Z,100608.47
2022-09-28T03:22:30.921Z,100609.50
2022-09-28T03:25:35.718Z,100617.00
2022-09-28T03:28:40.686Z,100611.22
2022-09-28T03:31:49.699Z,100604.50
2022-09-28T03:34:55.910Z,100607.97
2022-09-28T03:38:00.655Z,100618.38
2022-09-28T03:41:09.480Z,100616.88
2022-09-28T03:44:17.159Z,100611.94
2022-09-28T03:47:22.237Z,100610.31
2022-09-28T03:50:28.502Z,100609.41
2022-09-28T03:53:34.932Z,100613.31
2022-09-28T03:56:40.050Z,100609.22
2022-09-28T03:59:44.786Z,100609.22
2022-09-28T04:02:49.651Z,100612.81
2022-09-28T04:05:56.881Z,100613.84
2022-09-28T04:09:01.719Z,100611.59
2022-09-28T04:12:08.111Z,100614.09
2022-09-28T04:15:16.659Z,100622.47
2022-09-28T04:18:22.402Z,100618.38
2022-09-28T04:21:47.274Z,100623.16
2022-09-28T04:24:52.799Z,100619.34
2022-09-28T04:28:15.082Z,100621.03
2022-09-28T04:31:22.176Z,100626.63
2022-09-28T04:34:30.752Z,100617.31
2022-09-28T04:37:39.395Z,100622.69
2022-09-28T04:40:44.274Z,100623.59
2022-09-28T04:43:49.408Z,100622.75
2022-09-28T04:46:56.532Z,100622.81
2022-09-28T04:50:08.300Z,100623.66
2022-09-28T04:53:35.150Z,100620.13
2022-09-28T04:56:40.302Z,100612.41
2022-09-28T04:59:45.878Z,100620.84
2022-09-28T05:02:50.677Z,100611.59
2022-09-28T05:06:33.693Z,100623.44
2022-09-28T05:09:44.459Z,100617.56
2022-09-28T05:12:49.381Z,100614.22
2022-09-28T05:15:59.669Z,100616.78
2022-09-28T05:19:07.441Z,100622.00
2022-09-28T05:22:14.942Z,100627.13
2022-09-28T05:25:25.289Z,100625.00
2022-09-28T05:28:39.722Z,100616.16
2022-09-28T05:32:16.862Z,100627.19
2022-09-28T05:35:27.356Z,100638.50
2022-09-28T05:38:32.888Z,100629.81
2022-09-28T05:41:39.187Z,100630.72
2022-09-28T05:44:44.207Z,100622.94
2022-09-28T05:47:50.401Z,100636.63
2022-09-28T05:50:59.779Z,100642.78
2022-09-28T05:54:06.123Z,100645.56
2022-09-28T05:57:16.019Z,100635.28
2022-09-28T06:00:20.872Z,100645.50
2022-09-28T06:03:31.235Z,100636.81
2022-09-28T06:06:36.753Z,100640.16
2022-09-28T06:09:42.030Z,100644.47
2022-09-28T06:12:57.467Z,100641.97
2022-09-28T06:16:05.868Z,100640.16
2022-09-28T06:19:11.271Z,100642.53
2022-09-28T06:22:42.471Z,100652.88
2022-09-28T06:25:48.259Z,100646.66
2022-09-28T06:28:55.721Z,100646.28
2022-09-28T06:32:00.809Z,100647.38
2022-09-28T06:35:08.127Z,100655.31
2022-09-28T06:38:17.274Z,100649.22
2022-09-28T06:41:22.586Z,100661.16
2022-09-28T06:44:29.159Z,100653.16
2022-09-28T06:47:56.747Z,100658.25
2022-09-28T06:51:09.067Z,100659.97
2022-09-28T06:54:34.386Z,100658.66
2022-09-28T06:58:02.271Z,100650.59
2022-09-28T07:01:12.135Z,100652.41
2022-09-28T07:04:42.226Z,100660.88
2022-09-28T07:08:06.106Z,100650.47
2022-09-28T07:11:40.554Z,100652.84
2022-09-28T07:15:20.922Z,100657.09
2022-09-28T07:18:28.731Z,100654.22
2022-09-28T07:21:33.725Z,100652.91
2022-09-28T07:24:41.487Z,100657.56
2022-09-28T07:28:06.056Z,100654.50
2022-09-28T07:31:29.331Z,100656.31
2022-09-28T07:35:08.165Z,100652.56
2022-09-28T07:38:24.035Z,100649.63
2022-09-28T07:41:33.535Z,100648.88
2022-09-28T07:44:41.124Z,100660.53
2022-09-28T07:47:46.202Z,100652.09
2022-09-28T07:51:17.814Z,100652.34
2022-09-28T07:54:32.567Z,100657.91
2022-09-28T07:58:02.487Z,100650.88
2022-09-28T08:01:25.946Z,100657.41
2022-09-28T08:04:31.803Z,100660.00
2022-09-28T08:07:38.530Z,100662.25
2022-09-28T08:10:47.672Z,100662.00
2022-09-28T08:14:12.050Z,100662.88
2022-09-28T08:17:48.350Z,100660.19
2022-09-28T08:21:13.648Z,100655.19
2022-09-28T08:24:20.982Z,100665.47
2022-09-28T08:27:27.833Z,100663.78
2022-09-28T08:30:33.775Z,100657.63
2022-09-28T08:33:58.246Z,100655.75
2022-09-28T08:37:21.959Z,100657.28
2022-09-28T08:40:54.945Z,100670.75
2022-09-28T08:44:23.706Z,100654.22
2022-09-28T08:48:13.324Z,100670.75
2022-09-28T08:51:47.138Z,100669.78
2022-09-28T08:55:18.020Z,100664.38
2022-09-28T08:58:30.419Z,100661.66
2022-09-28T09:01:40.463Z,100667.34
2022-09-28T09:04:51.605Z,100672.69
2022-09-28T09:08:35.949Z,100668.72
2022-09-28T09:11:57.378Z,100671.72
2022-09-28T09:15:34.819Z,100668.81
2022-09-28T09:18:53.601Z,100671.16
2022-09-28T09:22:19.400Z,100667.38
2022-09-28T09:25:29.404Z,100666.03
2022-09-28T09:29:15.235Z,100671.06
2022-09-28T09:32:41.339Z,100676.88
2022-09-28T09:36:00.082Z,100691.06
2022-09-28T09:39:47.346Z,100688.63
2022-09-28T09:43:59.133Z,100681.25
2022-09-28T09:47:34.630Z,100682.50
2022-09-28T09:50:49.766Z,100698.56
2022-09-28T09:53:59.749Z,100696.00
2022-09-28T09:57:08.425Z,100691.13
2022-09-28T10:00:23.771Z,100692.41
2022-09-28T10:03:48.271Z,100698.84
2022-09-28T10:07:02.724Z,100696.13
2022-09-28T10:10:15.155Z,100698.78
2022-09-28T10:13:26.351Z,100689.59
2022-09-28T10:16:34.228Z,100704.00
2022-09-28T10:19:44.376Z,100696.59
2022-09-28T10:23:22.741Z,100690.84
2022-09-28T10:26:33.791Z,100682.91
2022-09-28T10:29:47.494Z,100696.13
2022-09-28T10:32:55.483Z,100687.91
2022-09-28T10:36:03.674Z,100676.97
2022-09-28T10:39:33.997Z,100688.88
2022-09-28T10:42:38.978Z,100682.81
2022-09-28T10:45:44.969Z,100679.81
2022-09-28T10:48:53.691Z,100679.13
2022-09-28T10:52:03.646Z,100683.19
2022-09-28T10:55:37.053Z,100684.97
2022-09-28T10:58:44.254Z,100678.66
2022-09-28T11:01:56.376Z,100675.59
2022-09-28T11:05:04.842Z,100672.19
2022-09-28T11:08:33.276Z,100662.69
2022-09-28T11:11:42.614Z,100678.00
2022-09-28T11:14:52.676Z,100685.41
2022-09-28T11:17:57.774Z,100682.50
2022-09-28T11:21:13.189Z,100677.50
2022-09-28T11:24:27.102Z,100665.25
2022-09-28T11:27:35.836Z,100671.97
2022-09-28T11:30:48.416Z,100672.91
2022-09-28T11:34:17.979Z,100665.31
2022-09-28T11:37:47.713Z,100673.78
2022-09-28T11:41:18.772Z,100675.03
2022-09-28T11:44:44.717Z,100667.28
2022-09-28T11:47:57.436Z,100658.72
2022-09-28T11:51:07.598Z,100670.34
2022-09-28T11:54:23.203Z,100662.19
2022-09-28T11:57:35.628Z,100650.38
2022-09-28T12:00:46.374Z,100658.66
2022-09-28T12:03:54.593Z,100658.00
2022-09-28T12:07:04.319Z,100650.59
2022-09-28T12:10:16.250Z,100653.31
2022-09-28T12:13:27.444Z,100678.47
2022-09-28T12:20:11.053Z,100664.41
2022-09-28T12:23:19.315Z,100655.19
2022-09-28T12:26:37.188Z,100657.47
2022-09-28T12:29:48.625Z,100659.94
2022-09-28T12:32:58.331Z,100657.69
2022-09-28T12:36:11.366Z,100640.25
2022-09-28T12:39:56.915Z,100645.66
2022-09-28T12:44:00.538Z,100659.34
2022-09-28T12:47:46.977Z,100654.09
2022-09-28T12:51:03.216Z,100643.94
2022-09-28T12:54:21.032Z,100647.47
2022-09-28T12:57:39.437Z,100643.88
2022-09-28T13:00:55.124Z,100636.03
2022-09-28T13:04:21.878Z,100634.94
2022-09-28T13:07:33.370Z,100639.56
2022-09-28T13:10:45.194Z,100631.75
2022-09-28T13:13:58.149Z,100626.56
2022-09-28T13:17:10.542Z,100627.47
2022-09-28T13:20:35.787Z,100628.50
2022-09-28T13:23:43.454Z,100627.28
2022-09-28T13:26:49.647Z,100629.69
2022-09-28T13:29:56.680Z,100639.88
2022-09-28T13:33:07.295Z,100625.91
2022-09-28T13:36:40.464Z,100622.56
2022-09-28T13:39:52.810Z,100626.56
2022-09-28T13:43:23.730Z,100618.50
2022-09-28T13:46:38.066Z,100624.91
2022-09-28T13:49:55.625Z,100636.16
2022-09-28T13:53:12.996Z,100616.75
2022-09-28T13:56:30.051Z,100616.31
2022-09-28T13:59:50.791Z,100635.25
2022-09-28T14:03:01.617Z,100622.22
2022-09-28T14:06:23.925Z,100628.72
2022-09-28T14:09:44.134Z,100633.41
2022-09-28T14:12:51.405Z,100614.28
2022-09-28T14:16:22.222Z,100611.50
2022-09-28T14:19:31.458Z,100615.66
2022-09-28T14:22:44.460Z,100612.75
2022-09-28T14:26:21.773Z,100612.69
2022-09-28T14:29:29.333Z,100620.03
2022-09-28T14:32:37.074Z,100612.81
2022-09-28T14:35:50.872Z,100612.97
2022-09-28T14:39:13.169Z,100613.50
2022-09-28T14:42:22.393Z,100613.59
2022-09-28T14:45:38.907Z,100617.19
2022-09-28T14:48:47.966Z,100612.13
2022-09-28T14:52:04.316Z,100622.16
2022-09-28T14:55:16.408Z,100615.47
2022-09-28T14:58:25.691Z,100624.91
2022-09-28T15:01:30.554Z,100618.63
2022-09-28T15:04:55.867Z,100612.25
2022-09-28T15:08:01.837Z,100608.31
2022-09-28T15:11:07.904Z,100602.28
2022-09-28T15:14:15.337Z,100603.09
2022-09-28T15:17:23.837Z,100607.13
2022-09-28T15:20:38.726Z,100598.72
2022-09-28T15:23:45.374Z,100617.53
2022-09-28T15:26:50.238Z,100600.75
2022-09-28T15:30:00.886Z,100606.28
2022-09-28T15:33:20.191Z,100605.69
2022-09-28T15:36:27.948Z,100601.75
2022-09-28T15:39:34.090Z,100606.88
2022-09-28T15:42:39.387Z,100605.34
2022-09-28T15:45:46.149Z,100604.88
2022-09-28T15:48:55.215Z,100608.88
2022-09-28T15:52:03.050Z,100615.13
2022-09-28T15:55:22.174Z,100611.81
2022-09-28T15:58:27.419Z,100613.88
2022-09-28T16:01:37.994Z,100619.25
2022-09-28T16:04:50.456Z,100619.19
2022-09-28T16:07:56.372Z,100623.53
2022-09-28T16:11:12.161Z,100626.75
2022-09-28T16:14:21.258Z,100627.09
2022-09-28T16:17:33.593Z,100629.78
2022-09-28T16:20:41.011Z,100627.09
2022-09-28T16:23:52.919Z,100626.44
2022-09-28T16:27:01.051Z,100634.91
2022-09-28T16:30:28.739Z,100621.75
2022-09-28T16:33:42.160Z,100625.06
2022-09-28T16:36:49.619Z,100627.50
2022-09-28T16:39:54.264Z,100626.66
2022-09-28T16:43:03.155Z,100630.41
2022-09-28T16:46:12.123Z,100635.31
2022-09-28T16:49:21.752Z,100634.31
2022-09-28T16:52:40.310Z,100626.31
2022-09-28T16:55:45.971Z,100624.94
2022-09-28T16:58:50.978Z,100627.44
2022-09-28T17:01:56.647Z,100624.81
2022-09-28T17:05:02.869Z,100621.53
2022-09-28T17:08:17.488Z,100630.66
2022-09-28T17:11:24.915Z,100619.19
2022-09-28T17:14:32.798Z,100632.81
2022-09-28T17:17:39.266Z,100620.19
2022-09-28T17:20:49.003Z,100628.84
2022-09-28T17:23:53.935Z,100631.53
2022-09-28T17:27:00.796Z,100637.44
2022-09-28T17:30:06.918Z,100630.13
2022-09-28T17:33:15.430Z,100626.94
2022-09-28T17:36:22.715Z,100626.00
2022-09-28T17:39:27.706Z,100619.44
2022-09-28T17:42:32.420Z,100620.25
2022-09-28T17:45:39.469Z,100621.72
2022-09-28T17:48:46.699Z,100625.44
2022-09-28T17:51:52.938Z,100629.16
2022-09-28T17:54:57.629Z,100615.47
2022-09-28T17:58:04.322Z,100621.88
2022-09-28T18:01:10.325Z,100621.09
2022-09-28T18:04:47.084Z,100616.47
2022-09-28T18:07:47.720Z,100621.09
2022-09-28T18:10:53.018Z,100619.19
2022-09-28T18:13:57.979Z,100620.16
2022-09-28T18:17:02.641Z,100625.28
2022-09-28T18:20:10.048Z,100626.34
2022-09-28T18:23:16.468Z,100631.53
2022-09-28T18:26:21.471Z,100637.63
2022-09-28T18:29:28.070Z,100641.22
2022-09-28T18:32:37.487Z,100631.13
2022-09-28T18:35:42.639Z,100633.75
2022-09-28T18:38:49.016Z,100633.16
2022-09-28T18:41:53.703Z,100630.47
2022-09-28T18:44:58.511Z,100628.94
2022-09-28T18:48:03.573Z,100633.84
2022-09-28T18:51:12.327Z,100627.94
2022-09-28T18:54:18.653Z,100634.00
2022-09-28T18:57:23.776Z,100627.19
2022-09-28T19:00:28.700Z,100634.09
2022-09-28T19:03:33.699Z,100636.63
2022-09-28T19:06:40.685Z,100631.34
2022-09-28T19:09:47.495Z,100632.97
2022-09-28T19:12:53.113Z,100638.16
2022-09-28T19:15:58.336Z,100633.34
2022-09-28T19:19:03.326Z,100628.56
2022-09-28T19:22:08.462Z,100633.44
2022-09-28T19:25:16.094Z,100633.88
2022-09-28T19:28:20.849Z,100633.56
2022-09-28T19:31:26.800Z,100631.53
2022-09-28T19:34:31.887Z,100633.03
2022-09-28T19:37:38.782Z,100630.44
2022-09-28T19:40:45.973Z,100627.66
2022-09-28T19:43:50.859Z,100626.31
2022-09-28T19:46:57.241Z,100620.03
2022-09-28T19:50:02.154Z,100626.91
2022-09-28T19:53:07.465Z,100622.59
2022-09-28T19:56:14.334Z,100620.72
2022-09-28T19:59:19.691Z,100622.81
2022-09-28T20:02:24.885Z,100627.94
2022-09-28T20:05:30.805Z,100623.97
2022-09-28T20:08:35.898Z,100622.59
2022-09-28T20:11:42.102Z,100625.09
2022-09-28T20:14:47.518Z,100615.84
2022-09-28T20:17:52.531Z,100618.78
2022-09-28T20:21:03.311Z,100613.59
2022-09-28T20:24:08.793Z,100611.16
2022-09-28T20:27:15.383Z,100613.81
2022-09-28T20:30:20.795Z,100614.19
2022-09-28T20:33:28.836Z,100611.72
2022-09-28T20:36:34.009Z,100609.22
2022-09-28T20:39:44.086Z,100612.63
2022-09-28T20:42:51.474Z,100602.16
2022-09-28T20:45:57.476Z,100607.34
2022-09-28T20:49:02.449Z,100612.94
2022-09-28T20:52:07.894Z,100616.47
2022-09-28T20:55:13.281Z,100605.19
2022-09-28T20:58:19.511Z,100606.66
2022-09-28T21:01:26.181Z,100602.34
2022-09-28T21:04:32.313Z,100606.81
2022-09-28T21:07:37.194Z,100603.25
2022-09-28T21:10:45.553Z,100609.16
2022-09-28T21:13:54.859Z,100606.97
2022-09-28T21:16:59.699Z,100606.81
2022-09-28T21:20:05.503Z,100609.72
2022-09-28T21:23:13.866Z,100604.59
2022-09-28T21:26:25.564Z,100605.78
2022-09-28T21:29:32.209Z,100615.03
2022-09-28T21:32:37.258Z,100613.44
2022-09-28T21:35:41.982Z,100611.78
2022-09-28T21:38:46.948Z,100614.44
2022-09-28T21:41:52.330Z,100610.94
2022-09-28T21:44:59.582Z,100611.00
2022-09-28T21:48:04.338Z,100617.97
2022-09-28T21:51:15.184Z,100608.56
2022-09-28T21:54:20.334Z,100617.09
2022-09-28T21:57:25.383Z,100609.41
2022-09-28T22:00:32.369Z,100612.66
2022-09-28T22:03:38.271Z,100612.19
2022-09-28T22:06:42.996Z,100614.44
2022-09-28T22:09:52.776Z,100614.41
2022-09-28T22:12:59.331Z,100616.75
2022-09-28T22:16:05.674Z,100616.59
2022-09-28T22:19:13.613Z,100605.56
2022-09-28T22:22:21.011Z,100607.28
2022-09-28T22:25:26.388Z,100616.78
2022-09-28T22:28:31.603Z,100607.75
2022-09-28T22:31:39.492Z,100611.84
2022-09-28T22:34:44.351Z,100611.06
2022-09-28T22:37:49.159Z,100604.91
2022-09-28T22:40:57.652Z,100612.66
2022-09-28T22:44:03.050Z,100608.50
2022-09-28T22:47:09.721Z,100610.78
2022-09-28T22:50:15.096Z,100609.50
2022-09-28T22:53:20.203Z,100608.97
2022-09-28T22:56:25.579Z,100609.66
2022-09-28T22:59:30.349Z,100611.03
2022-09-28T23:02:36.317Z,100603.88
2022-09-28T23:05:41.053Z,100599.06
2022-09-28T23:08:47.342Z,100595.59
2022-09-28T23:11:52.322Z,100609.19
2022-09-28T23:14:56.883Z,100615.41
2022-09-28T23:18:02.882Z,100618.41
2022-09-28T23:21:10.801Z,100610.19
2022-09-28T23:24:16.146Z,100618.06
2022-09-28T23:27:20.818Z,100614.19
2022-09-28T23:30:26.719Z,100609.84
2022-09-28T23:33:32.890Z,100614.84
2022-09-28T23:36:37.673Z,100614.84
2022-09-28T23:39:42.370Z,100614.84
2022-09-28T23:42:46.944Z,100610.19
2022-09-28T23:45:51.632Z,100601.69
2022-09-28T23:48:57.841Z,100604.09
2022-09-28T23:52:02.877Z,100609.94
2022-09-28T23:55:09.177Z,100600.41
2022-09-28T23:58:14.720Z,100597.53
